createdAt,value
2018-11-22T00:00:03.123Z,102489.31
2018-11-22T00:02:45.383Z,102489.72
2018-11-22T00:05:16.978Z,102483.11
2018-11-22T00:07:47.100Z,102482.24
2018-11-22T00:10:17.138Z,102476.12
2018-11-22T00:12:47.227Z,102479.63
2018-11-22T00:15:17.796Z,102476.07
2018-11-22T00:17:48.262Z,102480.39
2018-11-22T00:20:18.693Z,102473.33
2018-11-22T00:22:48.762Z,102472.92
2018-11-22T00:25:21.615Z,102475.03
2018-11-22T00:27:50.465Z,102474.20
2018-11-22T00:30:22.222Z,102466.25
2018-11-22T00:32:52.260Z,102470.70
2018-11-22T00:35:22.686Z,102465.88
2018-11-22T00:37:53.195Z,102472.02
2018-11-22T00:40:24.749Z,102476.89
2018-11-22T00:42:54.971Z,102471.26
2018-11-22T00:45:26.523Z,102470.78
2018-11-22T00:47:56.570Z,102467.67
2018-11-22T00:50:26.800Z,102474.31
2018-11-22T00:52:56.847Z,102476.45
2018-11-22T00:55:27.762Z,102478.66
2018-11-22T00:57:58.147Z,102473.91
2018-11-22T01:00:29.404Z,102472.55
2018-11-22T01:02:59.478Z,102472.17
2018-11-22T01:05:29.696Z,102479.70
2018-11-22T01:07:59.785Z,102478.78
2018-11-22T01:10:30.244Z,102474.32
2018-11-22T01:13:01.192Z,102473.84
2018-11-22T01:15:31.273Z,102481.83
2018-11-22T01:18:01.293Z,102476.97
2018-11-22T01:20:31.654Z,102476.04
2018-11-22T01:23:01.784Z,102476.04
2018-11-22T01:25:31.851Z,102476.09
2018-11-22T01:28:01.931Z,102473.87
2018-11-22T01:30:31.937Z,102471.61
2018-11-22T01:33:02.442Z,102479.17
2018-11-22T01:35:32.519Z,102476.02
2018-11-22T01:38:02.535Z,102471.22
2018-11-22T01:40:32.531Z,102469.90
2018-11-22T01:43:02.633Z,102466.77
2018-11-22T01:45:32.656Z,102464.59
2018-11-22T01:48:02.790Z,102469.03
2018-11-22T01:50:33.217Z,102469.05
2018-11-22T01:53:03.232Z,102469.92
2018-11-22T01:55:33.248Z,102471.21
2018-11-22T01:58:03.402Z,102472.52
2018-11-22T02:00:33.436Z,102475.20
2018-11-22T02:03:03.518Z,102473.44
2018-11-22T02:05:33.690Z,102477.36
2018-11-22T02:08:03.726Z,102468.98
2018-11-22T02:10:33.740Z,102471.22
2018-11-22T02:13:03.922Z,102470.78
2018-11-22T02:15:34.006Z,102465.05
2018-11-22T02:18:03.996Z,102473.87
2018-11-22T02:20:34.510Z,102464.19
2018-11-22T02:23:04.542Z,102466.77
2018-11-22T02:25:34.593Z,102458.40
2018-11-22T02:28:04.710Z,102470.30
2018-11-22T02:30:34.759Z,102467.25
2018-11-22T02:33:04.776Z,102468.16
2018-11-22T02:35:35.238Z,102466.90
2018-11-22T02:38:05.287Z,102468.16
2018-11-22T02:40:35.339Z,102471.71
2018-11-22T02:43:07.503Z,102477.41
2018-11-22T02:45:37.543Z,102476.95
2018-11-22T02:48:07.648Z,102474.83
2018-11-22T02:50:37.796Z,102474.80
2018-11-22T02:53:08.253Z,102471.21
2018-11-22T02:55:39.367Z,102469.46
2018-11-22T02:58:09.453Z,102474.27
2018-11-22T03:00:40.941Z,102465.45
2018-11-22T03:03:12.282Z,102467.67
2018-11-22T03:05:42.504Z,102471.63
2018-11-22T03:08:12.521Z,102471.70
2018-11-22T03:10:42.573Z,102469.96
2018-11-22T03:13:14.357Z,102462.00
2018-11-22T03:15:44.413Z,102465.56
2018-11-22T03:18:14.471Z,102465.14
2018-11-22T03:20:44.642Z,102467.77
2018-11-22T03:23:14.707Z,102460.30
2018-11-22T03:25:45.244Z,102461.63
2018-11-22T03:28:15.840Z,102469.09
2018-11-22T03:30:45.858Z,102464.70
2018-11-22T03:33:15.888Z,102459.41
2018-11-22T03:35:46.158Z,102456.67
2018-11-22T03:38:16.165Z,102456.67
2018-11-22T03:40:46.951Z,102460.66
2018-11-22T03:43:22.721Z,102449.69
2018-11-22T03:45:52.732Z,102450.98
2018-11-22T03:48:22.782Z,102456.75
2018-11-22T03:50:52.944Z,102449.66
2018-11-22T03:53:22.962Z,102454.15
2018-11-22T03:55:52.984Z,102450.61
2018-11-22T03:58:23.104Z,102442.66
2018-11-22T04:00:53.091Z,102446.14
2018-11-22T04:03:23.094Z,102449.66
2018-11-22T04:05:53.229Z,102445.74
2018-11-22T04:08:23.245Z,102445.27
2018-11-22T04:10:53.248Z,102446.59
2018-11-22T04:13:23.310Z,102442.69
2018-11-22T04:15:53.339Z,102444.89
2018-11-22T04:18:23.343Z,102442.73
2018-11-22T04:20:53.422Z,102435.28
2018-11-22T04:23:23.440Z,102441.83
2018-11-22T04:25:53.456Z,102448.47
2018-11-22T04:28:23.505Z,102444.98
2018-11-22T04:30:53.520Z,102449.78
2018-11-22T04:33:23.599Z,102442.70
2018-11-22T04:35:53.736Z,102442.69
2018-11-22T04:38:23.779Z,102448.83
2018-11-22T04:40:53.811Z,102444.84
2018-11-22T04:43:23.980Z,102440.94
2018-11-22T04:45:53.977Z,102436.49
2018-11-22T04:48:24.048Z,102435.23
2018-11-22T04:50:54.543Z,102433.55
2018-11-22T04:53:24.614Z,102430.36
2018-11-22T04:55:54.768Z,102427.72
2018-11-22T04:58:25.037Z,102427.71
2018-11-22T05:00:55.105Z,102434.30
2018-11-22T05:03:25.173Z,102430.80
2018-11-22T05:05:55.291Z,102440.91
2018-11-22T05:08:25.480Z,102434.36
2018-11-22T05:10:55.533Z,102434.28
2018-11-22T05:13:25.651Z,102434.30
2018-11-22T05:15:55.841Z,102428.98
2018-11-22T05:18:25.845Z,102431.22
2018-11-22T05:20:55.906Z,102428.20
2018-11-22T05:23:25.955Z,102427.75
2018-11-22T05:25:55.999Z,102422.46
2018-11-22T05:28:26.159Z,102427.77
2018-11-22T05:30:56.575Z,102422.49
2018-11-22T05:33:26.662Z,102417.58
2018-11-22T05:35:56.889Z,102422.03
2018-11-22T05:38:26.951Z,102420.27
2018-11-22T05:40:57.021Z,102420.56
2018-11-22T05:43:27.089Z,102416.66
2018-11-22T05:45:57.361Z,102412.84
2018-11-22T05:48:27.365Z,102416.70
2018-11-22T05:50:57.549Z,102415.35
2018-11-22T05:53:28.365Z,102416.66
2018-11-22T05:56:00.604Z,102415.28
2018-11-22T05:58:30.684Z,102412.25
2018-11-22T06:01:00.787Z,102409.55
2018-11-22T06:03:31.244Z,102408.24
2018-11-22T06:06:04.743Z,102407.80
2018-11-22T06:08:34.776Z,102408.68
2018-11-22T06:11:04.910Z,102404.72
2018-11-22T06:13:35.973Z,102414.39
2018-11-22T06:16:06.192Z,102418.84
2018-11-22T06:18:38.410Z,102416.63
2018-11-22T06:21:08.581Z,102418.78
2018-11-22T06:23:39.434Z,102422.33
2018-11-22T06:26:09.458Z,102425.44
2018-11-22T06:28:40.500Z,102433.28
2018-11-22T06:31:10.583Z,102428.09
2018-11-22T06:33:40.660Z,102428.97
2018-11-22T06:36:12.595Z,102438.23
2018-11-22T06:38:43.409Z,102435.09
2018-11-22T06:41:13.577Z,102439.05
2018-11-22T06:43:43.906Z,102442.17
2018-11-22T06:46:13.922Z,102435.55
2018-11-22T06:48:44.836Z,102435.92
2018-11-22T06:51:15.084Z,102434.57
2018-11-22T06:53:45.866Z,102435.95
2018-11-22T06:56:15.880Z,102441.28
2018-11-22T06:58:46.062Z,102441.81
2018-11-22T07:01:16.079Z,102450.17
2018-11-22T07:03:46.192Z,102439.16
2018-11-22T07:06:17.414Z,102443.09
2018-11-22T07:08:48.381Z,102444.80
2018-11-22T07:11:18.809Z,102446.09
2018-11-22T07:13:49.065Z,102451.00
2018-11-22T07:16:19.904Z,102451.05
2018-11-22T07:18:50.800Z,102449.80
2018-11-22T07:21:20.920Z,102441.89
2018-11-22T07:23:51.757Z,102452.84
2018-11-22T07:26:21.890Z,102453.30
2018-11-22T07:28:52.449Z,102451.02
2018-11-22T07:31:23.283Z,102453.17
2018-11-22T07:33:54.078Z,102443.94
2018-11-22T07:36:25.218Z,102448.78
2018-11-22T07:38:55.282Z,102451.48
2018-11-22T07:41:26.319Z,102454.09
2018-11-22T07:43:56.669Z,102447.89
2018-11-22T07:46:27.541Z,102452.23
2018-11-22T07:48:57.600Z,102449.62
2018-11-22T07:51:27.954Z,102457.99
2018-11-22T07:53:58.061Z,102449.69
2018-11-22T07:56:28.088Z,102451.45
2018-11-22T07:58:59.146Z,102450.09
2018-11-22T08:01:29.413Z,102450.09
2018-11-22T08:04:01.038Z,102452.75
2018-11-22T08:06:31.371Z,102450.58
2018-11-22T08:09:02.250Z,102457.16
2018-11-22T08:11:33.083Z,102454.52
2018-11-22T08:14:03.267Z,102459.39
2018-11-22T08:16:34.921Z,102457.58
2018-11-22T08:19:05.797Z,102458.86
2018-11-22T08:21:38.328Z,102452.72
2018-11-22T08:24:06.813Z,102459.77
2018-11-22T08:26:37.632Z,102459.30
2018-11-22T08:29:08.932Z,102473.89
2018-11-22T08:31:39.039Z,102470.36
2018-11-22T08:34:09.173Z,102466.81
2018-11-22T08:36:39.221Z,102468.56
2018-11-22T08:39:10.692Z,102444.86
2018-11-22T08:44:10.062Z,102475.15
2018-11-22T08:46:40.076Z,102474.68
2018-11-22T08:49:11.665Z,102472.08
2018-11-22T08:51:43.930Z,102471.65
2018-11-22T08:54:13.939Z,102471.65
2018-11-22T08:56:43.949Z,102462.38
2018-11-22T08:59:14.122Z,102474.20
2018-11-22T09:01:45.023Z,102469.81
2018-11-22T09:04:15.831Z,102488.28
2018-11-22T09:06:48.098Z,102473.39
2018-11-22T09:09:18.147Z,102470.69
2018-11-22T09:11:48.992Z,102467.94
2018-11-22T09:14:20.239Z,102478.52
2018-11-22T09:16:50.942Z,102473.25
2018-11-22T09:19:21.991Z,102482.17
2018-11-22T09:21:52.148Z,102490.93
2018-11-22T09:24:24.194Z,102483.44
2018-11-22T09:26:54.594Z,102486.95
2018-11-22T09:29:25.051Z,102494.42
2018-11-22T09:31:55.870Z,102495.75
2018-11-22T09:34:25.971Z,102491.72
2018-11-22T09:36:56.945Z,102492.19
2018-11-22T09:39:27.713Z,102490.83
2018-11-22T09:41:57.864Z,102489.60
2018-11-22T09:44:28.077Z,102492.94
2018-11-22T09:46:58.853Z,102494.73
2018-11-22T09:49:28.835Z,102496.44
2018-11-22T09:51:58.851Z,102494.70
2018-11-22T09:54:28.838Z,102488.08
2018-11-22T09:56:58.815Z,102481.59
2018-11-22T09:59:28.832Z,102483.76
2018-11-22T10:01:59.079Z,102485.08
2018-11-22T10:04:29.097Z,102486.01
2018-11-22T10:06:59.740Z,102482.48
2018-11-22T10:09:30.557Z,102479.91
2018-11-22T10:14:35.137Z,102484.35
2018-11-22T10:17:05.169Z,102478.45
2018-11-22T10:19:35.195Z,102473.67
2018-11-22T10:22:08.908Z,102470.16
2018-11-22T10:24:38.880Z,102461.86
2018-11-22T10:27:08.896Z,102467.11
2018-11-22T10:29:39.208Z,102464.13
2018-11-22T10:32:09.516Z,102459.74
2018-11-22T10:34:40.575Z,102461.95
2018-11-22T10:37:10.734Z,102462.80
2018-11-22T10:39:40.722Z,102463.17
2018-11-22T10:42:10.738Z,102461.41
2018-11-22T10:44:41.065Z,102460.97
2018-11-22T10:47:11.076Z,102467.48
2018-11-22T10:49:41.066Z,102459.55
2018-11-22T10:52:12.445Z,102461.73
2018-11-22T10:54:42.551Z,102462.17
2018-11-22T10:57:14.829Z,102457.67
2018-11-22T10:59:45.177Z,102457.28
2018-11-22T11:02:32.342Z,102454.76
2018-11-22T11:05:19.662Z,102454.79
2018-11-22T11:07:54.155Z,102451.28
2018-11-22T11:10:24.197Z,102449.47
2018-11-22T11:12:54.214Z,102454.24
2018-11-22T11:15:24.176Z,102446.67
2018-11-22T11:17:54.289Z,102445.02
2018-11-22T11:20:24.238Z,102444.72
2018-11-22T11:22:54.274Z,102442.52
2018-11-22T11:25:24.398Z,102448.20
2018-11-22T11:27:54.395Z,102440.69
2018-11-22T11:30:24.476Z,102441.17
2018-11-22T11:32:54.622Z,102439.38
2018-11-22T11:35:25.605Z,102435.88
2018-11-22T11:37:55.688Z,102441.58
2018-11-22T11:40:27.422Z,102438.08
2018-11-22T11:42:58.186Z,102430.09
2018-11-22T11:45:29.592Z,102432.21
2018-11-22T11:47:59.698Z,102422.38
2018-11-22T11:50:29.701Z,102423.72
2018-11-22T11:53:00.660Z,102416.81
2018-11-22T11:55:30.828Z,102416.39
2018-11-22T11:58:01.050Z,102414.52
2018-11-22T12:00:35.936Z,102410.05
2018-11-22T12:03:06.467Z,102404.30
2018-11-22T12:05:36.540Z,102406.53
2018-11-22T12:08:06.917Z,102404.35
2018-11-22T12:10:37.347Z,102398.98
2018-11-22T12:13:07.980Z,102404.66
2018-11-22T12:15:38.071Z,102410.83
2018-11-22T12:18:08.274Z,102393.31
2018-11-22T12:20:38.537Z,102394.95
2018-11-22T12:23:08.485Z,102398.42
2018-11-22T12:25:41.257Z,102397.97
2018-11-22T12:28:11.212Z,102394.94
2018-11-22T12:30:41.970Z,102394.12
2018-11-22T12:33:33.308Z,102394.14
2018-11-22T12:36:20.201Z,102396.81
2018-11-22T12:38:51.175Z,102386.16
2018-11-22T12:41:21.291Z,102384.47
2018-11-22T12:43:51.260Z,102384.47
2018-11-22T12:46:21.292Z,102385.72
2018-11-22T12:48:51.310Z,102378.64
2018-11-22T12:51:21.300Z,102382.41
2018-11-22T12:53:51.407Z,102380.19
2018-11-22T12:56:21.386Z,102372.13
2018-11-22T12:58:51.346Z,102377.33
2018-11-22T13:01:21.704Z,102371.28
2018-11-22T13:03:51.753Z,102369.83
2018-11-22T13:06:21.732Z,102378.64
2018-11-22T13:08:51.796Z,102385.22
2018-11-22T13:11:21.754Z,102380.39
2018-11-22T13:13:51.785Z,102376.48
2018-11-22T13:16:22.041Z,102380.03
2018-11-22T13:18:52.026Z,102375.20
2018-11-22T13:21:22.039Z,102371.28
2018-11-22T13:23:52.198Z,102378.79
2018-11-22T13:26:22.158Z,102385.64
2018-11-22T13:28:52.169Z,102380.80
2018-11-22T13:31:22.602Z,102372.89
2018-11-22T13:33:52.609Z,102371.91
2018-11-22T13:36:22.619Z,102370.52
2018-11-22T13:38:52.877Z,102366.52
2018-11-22T13:41:23.676Z,102372.67
2018-11-22T13:43:53.988Z,102375.69
2018-11-22T13:46:24.253Z,102376.62
2018-11-22T13:48:54.319Z,102368.25
2018-11-22T13:51:24.596Z,102368.31
2018-11-22T13:53:56.925Z,102364.36
2018-11-22T13:56:26.922Z,102367.09
2018-11-22T13:58:57.013Z,102360.94
2018-11-22T14:01:27.077Z,102365.77
2018-11-22T14:03:57.050Z,102364.79
2018-11-22T14:06:27.010Z,102366.55
2018-11-22T14:08:57.070Z,102365.25
2018-11-22T14:11:27.180Z,102365.66
2018-11-22T14:13:57.190Z,102365.13
2018-11-22T14:16:27.400Z,102361.17
2018-11-22T14:18:57.400Z,102359.98
2018-11-22T14:21:27.549Z,102355.51
2018-11-22T14:23:58.215Z,102358.97
2018-11-22T14:26:28.661Z,102350.53
2018-11-22T14:28:58.631Z,102357.05
2018-11-22T14:31:28.667Z,102354.50
2018-11-22T14:33:58.660Z,102356.38
2018-11-22T14:36:28.671Z,102354.58
2018-11-22T14:38:59.001Z,102358.62
2018-11-22T14:41:28.967Z,102353.39
2018-11-22T14:43:59.741Z,102352.48
2018-11-22T14:46:29.772Z,102347.67
2018-11-22T14:48:59.746Z,102353.11
2018-11-22T14:51:33.233Z,102355.17
2018-11-22T14:54:03.256Z,102355.05
2018-11-22T14:56:33.280Z,102347.27
2018-11-22T14:59:03.287Z,102348.16
2018-11-22T15:01:33.499Z,102350.43
2018-11-22T15:04:03.475Z,102351.32
2018-11-22T15:06:33.445Z,102351.77
2018-11-22T15:09:03.758Z,102351.36
2018-11-22T15:11:33.727Z,102342.55
2018-11-22T15:14:03.698Z,102349.45
2018-11-22T15:16:33.716Z,102345.52
2018-11-22T15:19:03.936Z,102343.81
2018-11-22T15:21:33.889Z,102346.49
2018-11-22T15:24:03.880Z,102352.30
2018-11-22T15:26:33.969Z,102359.31
2018-11-22T15:29:03.988Z,102350.39
2018-11-22T15:31:34.199Z,102356.12
2018-11-22T15:34:04.187Z,102347.77
2018-11-22T15:36:34.351Z,102354.19
2018-11-22T15:39:04.399Z,102357.23
2018-11-22T15:41:34.387Z,102354.80
2018-11-22T15:44:04.355Z,102356.59
2018-11-22T15:46:34.431Z,102360.08
2018-11-22T15:49:04.415Z,102357.83
2018-11-22T15:51:34.432Z,102369.77
2018-11-22T15:54:04.672Z,102369.78
2018-11-22T16:01:45.714Z,102364.98
2018-11-22T16:04:14.394Z,102366.31
2018-11-22T16:06:43.106Z,102365.58
2018-11-22T16:09:12.509Z,102373.59
2018-11-22T16:11:41.256Z,102371.93
2018-11-22T16:14:09.945Z,102368.94
2018-11-22T16:16:38.678Z,102368.38
2018-11-22T16:19:07.419Z,102366.22
2018-11-22T16:21:36.086Z,102370.27
2018-11-22T16:24:04.906Z,102364.91
2018-11-22T16:26:33.644Z,102364.92
2018-11-22T16:29:02.339Z,102375.14
2018-11-22T16:31:31.050Z,102374.73
2018-11-22T16:33:59.749Z,102375.22
2018-11-22T16:36:28.525Z,102378.77
2018-11-22T16:38:57.644Z,102378.33
2018-11-22T16:41:27.530Z,102369.06
2018-11-22T16:43:59.629Z,102369.58
2018-11-22T16:46:26.262Z,102373.97
2018-11-22T16:48:55.674Z,102366.06
2018-11-22T16:51:24.966Z,102367.83
2018-11-22T16:53:54.734Z,102364.25
2018-11-22T16:56:24.181Z,102368.17
2018-11-22T16:58:53.449Z,102362.41
2018-11-22T17:01:27.629Z,102361.09
2018-11-22T17:03:51.426Z,102365.84
2018-11-22T17:06:20.518Z,102370.30
2018-11-22T17:08:49.331Z,102368.08
2018-11-22T17:11:18.149Z,102362.38
2018-11-22T17:13:47.338Z,102361.05
2018-11-22T17:16:18.219Z,102363.70
2018-11-22T17:18:48.697Z,102362.41
2018-11-22T17:21:18.410Z,102357.20
2018-11-22T17:23:47.223Z,102358.08
2018-11-22T17:26:17.037Z,102362.06
2018-11-22T17:28:47.342Z,102362.48
2018-11-22T17:31:17.299Z,102364.66
2018-11-22T17:33:46.084Z,102370.38
2018-11-22T17:36:16.438Z,102360.62
2018-11-22T17:38:47.201Z,102363.55
2018-11-22T17:41:17.174Z,102358.69
2018-11-22T17:43:45.888Z,102369.27
2018-11-22T17:46:14.856Z,102363.13
2018-11-22T17:48:43.572Z,102364.91
2018-11-22T17:51:12.345Z,102363.55
2018-11-22T17:53:41.215Z,102364.96
2018-11-22T17:56:09.973Z,102374.22
2018-11-22T17:58:40.647Z,102373.25
2018-11-22T18:01:14.511Z,102377.33
2018-11-22T18:03:39.499Z,102380.02
2018-11-22T18:06:08.398Z,102374.86
2018-11-22T18:08:37.334Z,102371.72
2018-11-22T18:11:07.477Z,102377.91
2018-11-22T18:13:37.387Z,102385.28
2018-11-22T18:16:06.310Z,102386.17
2018-11-22T18:18:37.092Z,102379.22
2018-11-22T18:21:07.378Z,102375.73
2018-11-22T18:23:36.402Z,102379.23
2018-11-22T18:26:05.798Z,102374.44
2018-11-22T18:28:34.690Z,102389.93
2018-11-22T18:31:03.476Z,102390.84
2018-11-22T18:33:32.322Z,102390.89
2018-11-22T18:36:01.257Z,102393.08
2018-11-22T18:38:30.041Z,102387.37
2018-11-22T18:40:58.799Z,102385.63
2018-11-22T18:43:27.588Z,102391.74
2018-11-22T18:45:56.294Z,102390.84
2018-11-22T18:48:25.092Z,102386.08
2018-11-22T18:50:54.018Z,102390.86
2018-11-22T18:53:22.975Z,102389.97
2018-11-22T18:55:59.266Z,102386.42
2018-11-22T18:58:27.444Z,102382.33
2018-11-22T19:00:56.201Z,102380.28
2018-11-22T19:03:25.090Z,102389.53
2018-11-22T19:05:53.951Z,102388.38
2018-11-22T19:08:23.703Z,102387.86
2018-11-22T19:10:51.965Z,102379.48
2018-11-22T19:13:20.795Z,102382.09
2018-11-22T19:15:50.028Z,102376.86
2018-11-22T19:18:19.062Z,102375.23
2018-11-22T19:20:47.943Z,102380.08
2018-11-22T19:23:17.213Z,102380.44
2018-11-22T19:25:46.098Z,102375.63
2018-11-22T19:28:14.995Z,102374.83
2018-11-22T19:30:45.247Z,102380.52
2018-11-22T19:33:15.631Z,102381.85
2018-11-22T19:35:45.888Z,102375.67
2018-11-22T19:38:15.335Z,102374.83
2018-11-22T19:40:44.603Z,102369.96
2018-11-22T19:43:13.526Z,102382.28
2018-11-22T19:45:44.086Z,102375.74
2018-11-22T19:48:12.938Z,102381.40
2018-11-22T19:50:41.697Z,102379.25
2018-11-22T19:53:11.961Z,102375.74
2018-11-22T19:55:41.383Z,102377.50
2018-11-22T19:58:11.615Z,102374.35
2018-11-22T20:00:40.390Z,102374.73
2018-11-22T20:03:09.761Z,102374.33
2018-11-22T20:05:39.844Z,102372.50
2018-11-22T20:08:10.276Z,102378.69
2018-11-22T20:10:40.654Z,102373.88
2018-11-22T20:13:09.537Z,102378.31
2018-11-22T20:15:38.791Z,102378.80
2018-11-22T20:18:08.767Z,102374.88
2018-11-22T20:20:37.495Z,102383.29
2018-11-22T20:23:06.475Z,102392.94
2018-11-22T20:25:35.199Z,102388.16
2018-11-22T20:28:03.922Z,102386.83
2018-11-22T20:30:34.102Z,102387.30
2018-11-22T20:33:03.069Z,102385.08
2018-11-22T20:35:32.735Z,102380.15
2018-11-22T20:38:01.587Z,102382.45
2018-11-22T20:40:30.479Z,102377.23
2018-11-22T20:42:59.778Z,102377.66
2018-11-22T20:45:29.320Z,102371.89
2018-11-22T20:47:59.842Z,102377.25
2018-11-22T20:50:30.656Z,102374.69
2018-11-22T20:52:59.378Z,102381.22
2018-11-22T20:55:29.485Z,102379.89
2018-11-22T20:57:59.919Z,102376.86
2018-11-22T21:00:29.967Z,102377.27
2018-11-22T21:02:58.752Z,102386.00
2018-11-22T21:05:29.191Z,102381.16
2018-11-22T21:07:58.071Z,102370.23
2018-11-22T21:10:28.103Z,102371.02
2018-11-22T21:12:57.299Z,102372.34
2018-11-22T21:15:27.392Z,102370.07
2018-11-22T21:17:58.459Z,102375.03
2018-11-22T21:20:28.832Z,102376.78
2018-11-22T21:22:57.649Z,102377.64
2018-11-22T21:25:26.925Z,102371.92
2018-11-22T21:30:33.849Z,102378.48
2018-11-22T21:33:03.048Z,102373.61
2018-11-22T21:35:32.150Z,102371.48
2018-11-22T21:38:01.879Z,102371.86
2018-11-22T21:40:31.327Z,102369.64
2018-11-22T21:43:00.013Z,102375.39
2018-11-22T21:45:29.548Z,102376.27
2018-11-22T21:47:58.270Z,102384.22
2018-11-22T21:50:28.176Z,102374.19
2018-11-22T21:52:57.486Z,102374.59
2018-11-22T21:55:29.413Z,102374.51
2018-11-22T21:57:59.534Z,102373.20
2018-11-22T22:00:33.372Z,102365.23
2018-11-22T22:03:03.774Z,102369.15
2018-11-22T22:05:32.726Z,102365.23
2018-11-22T22:08:01.649Z,102363.91
2018-11-22T22:10:30.912Z,102362.99
2018-11-22T22:12:59.991Z,102363.31
2018-11-22T22:15:29.880Z,102356.80
2018-11-22T22:17:58.745Z,102362.48
2018-11-22T22:20:35.008Z,102365.97
2018-11-22T22:23:04.050Z,102367.73
2018-11-22T22:25:33.158Z,102365.89
2018-11-22T22:28:02.367Z,102361.53
2018-11-22T22:30:33.795Z,102357.64
2018-11-22T22:33:04.100Z,102358.60
2018-11-22T22:35:32.852Z,102360.31
2018-11-22T22:38:01.746Z,102361.27
2018-11-22T22:40:33.199Z,102363.08
2018-11-22T22:43:02.602Z,102363.08
2018-11-22T22:45:32.573Z,102367.83
2018-11-22T22:48:01.400Z,102370.00
2018-11-22T22:50:31.316Z,102364.70
2018-11-22T22:53:00.751Z,102366.42
2018-11-22T22:55:29.950Z,102366.16
2018-11-22T22:57:58.730Z,102373.22
2018-11-22T23:00:33.302Z,102371.02
2018-11-22T23:03:08.671Z,102379.46
2018-11-22T23:05:38.081Z,102375.37
2018-11-22T23:08:06.924Z,102367.86
2018-11-22T23:10:35.816Z,102363.35
2018-11-22T23:13:05.889Z,102366.89
2018-11-22T23:15:34.745Z,102366.37
2018-11-22T23:18:03.604Z,102360.17
2018-11-22T23:20:33.722Z,102365.98
2018-11-22T23:23:02.482Z,102362.99
2018-11-22T23:25:31.398Z,102367.45
2018-11-22T23:28:00.260Z,102363.01
2018-11-22T23:30:31.815Z,102359.52
2018-11-22T23:33:02.137Z,102360.75
2018-11-22T23:35:30.844Z,102358.11
2018-11-22T23:37:59.662Z,102360.75
2018-11-22T23:40:29.882Z,102355.92
2018-11-22T23:42:58.720Z,102363.33
2018-11-22T23:45:29.458Z,102355.89
2018-11-22T23:47:58.243Z,102363.33
2018-11-22T23:50:28.311Z,102356.73
2018-11-22T23:52:58.115Z,102355.83
2018-11-22T23:55:26.984Z,102353.36
2018-11-22T23:57:55.683Z,102355.15
